createdAt,value
2018-11-25T00:00:36.288Z,63.43
2018-11-25T00:03:05.022Z,60.47
2018-11-25T00:05:33.494Z,61.50
2018-11-25T00:08:18.003Z,61.90
2018-11-25T00:10:47.675Z,58.83
2018-11-25T00:13:17.422Z,55.80
2018-11-25T00:15:47.199Z,58.90
2018-11-25T00:18:18.085Z,55.93
2018-11-25T00:20:46.776Z,55.90
2018-11-25T00:23:16.569Z,54.10
2018-11-25T00:25:46.468Z,52.83
2018-11-25T00:28:16.188Z,55.77
2018-11-25T00:30:45.948Z,52.17
2018-11-25T00:33:15.534Z,51.63
2018-11-25T00:35:45.287Z,52.13
2018-11-25T00:38:14.940Z,50.67
2018-11-25T00:40:44.612Z,51.10
2018-11-25T00:43:14.352Z,51.33
2018-11-25T00:45:44.148Z,49.40
2018-11-25T00:48:13.947Z,49.10
2018-11-25T00:50:43.664Z,48.70
2018-11-25T00:53:13.472Z,48.00
2018-11-25T00:55:43.282Z,48.03
2018-11-25T00:58:13.096Z,48.60
2018-11-25T01:00:42.863Z,46.70
2018-11-25T01:03:12.696Z,46.43
2018-11-25T01:05:42.485Z,44.80
2018-11-25T01:08:12.283Z,45.63
2018-11-25T01:10:42.307Z,44.83
2018-11-25T01:13:12.112Z,43.73
2018-11-25T01:15:41.925Z,42.57
2018-11-25T01:18:11.606Z,42.33
2018-11-25T01:20:41.211Z,43.50
2018-11-25T01:23:10.992Z,43.80
2018-11-25T01:25:40.787Z,42.87
2018-11-25T01:28:10.464Z,41.57
2018-11-25T01:30:40.164Z,43.20
2018-11-25T01:33:09.956Z,42.20
2018-11-25T01:35:39.665Z,42.43
2018-11-25T01:38:09.494Z,39.57
2018-11-25T01:40:39.271Z,40.00
2018-11-25T01:43:09.007Z,39.87
2018-11-25T01:45:38.765Z,40.70
2018-11-25T01:48:08.582Z,37.63
2018-11-25T01:50:38.464Z,39.40
2018-11-25T01:53:08.275Z,39.53
2018-11-25T01:55:38.400Z,39.57
2018-11-25T01:58:08.383Z,37.30
2018-11-25T02:00:38.179Z,36.27
2018-11-25T02:03:07.887Z,36.73
2018-11-25T02:05:37.619Z,36.70
2018-11-25T02:08:07.292Z,36.70
2018-11-25T02:10:37.081Z,35.17
2018-11-25T02:13:06.782Z,35.63
2018-11-25T02:15:36.990Z,36.43
2018-11-25T02:18:06.790Z,35.03
2018-11-25T02:20:36.471Z,35.83
2018-11-25T02:23:06.472Z,33.70
2018-11-25T02:25:36.148Z,33.23
2018-11-25T02:28:06.053Z,33.43
2018-11-25T02:30:35.662Z,35.10
2018-11-25T02:33:05.576Z,33.97
2018-11-25T02:35:35.560Z,33.70
2018-11-25T02:38:05.261Z,31.67
2018-11-25T02:40:35.091Z,34.20
2018-11-25T02:43:04.837Z,33.50
2018-11-25T02:45:34.690Z,31.77
2018-11-25T02:48:04.509Z,31.80
2018-11-25T02:50:34.487Z,31.53
2018-11-25T02:53:07.860Z,31.27
2018-11-25T02:55:37.656Z,31.37
2018-11-25T02:58:07.352Z,30.93
2018-11-25T03:00:37.264Z,31.37
2018-11-25T03:03:07.056Z,30.73
2018-11-25T03:05:36.832Z,29.20
2018-11-25T03:08:06.631Z,29.10
2018-11-25T03:10:36.315Z,30.03
2018-11-25T03:13:06.122Z,28.77
2018-11-25T03:15:35.921Z,30.77
2018-11-25T03:18:10.241Z,28.93
2018-11-25T03:20:40.111Z,30.00
2018-11-25T03:23:09.971Z,27.27
2018-11-25T03:25:39.744Z,26.90
2018-11-25T03:28:09.572Z,28.17
2018-11-25T03:30:39.363Z,29.83
2018-11-25T03:33:09.161Z,27.17
2018-11-25T03:35:38.923Z,27.97
2018-11-25T03:38:08.781Z,27.73
2018-11-25T03:40:38.541Z,26.23
2018-11-25T03:43:08.349Z,26.30
2018-11-25T03:45:38.152Z,25.27
2018-11-25T03:48:07.931Z,26.37
2018-11-25T03:50:37.737Z,28.43
2018-11-25T03:53:07.524Z,26.10
2018-11-25T03:55:37.268Z,25.67
2018-11-25T03:58:07.253Z,26.90
2018-11-25T04:00:37.010Z,25.30
2018-11-25T04:03:06.820Z,25.03
2018-11-25T04:05:36.529Z,25.70
2018-11-25T04:08:06.283Z,25.53
2018-11-25T04:10:36.168Z,26.03
2018-11-25T04:13:06.208Z,24.23
2018-11-25T04:15:35.985Z,24.33
2018-11-25T04:18:05.765Z,24.13
2018-11-25T04:20:35.507Z,23.13
2018-11-25T04:23:05.318Z,22.97
2018-11-25T04:25:34.952Z,22.60
2018-11-25T04:28:04.735Z,22.47
2018-11-25T04:30:34.437Z,23.37
2018-11-25T04:33:04.195Z,23.40
2018-11-25T04:35:33.968Z,21.40
2018-11-25T04:38:03.753Z,24.67
2018-11-25T04:40:33.408Z,24.30
2018-11-25T04:43:03.177Z,23.00
2018-11-25T04:45:32.883Z,22.40
2018-11-25T04:48:02.818Z,24.60
2018-11-25T04:50:32.503Z,20.63
2018-11-25T04:53:02.574Z,21.67
2018-11-25T04:55:32.331Z,20.63
2018-11-25T04:58:02.151Z,20.93
2018-11-25T05:00:31.950Z,21.13
2018-11-25T05:03:01.775Z,20.57
2018-11-25T05:05:31.672Z,20.47
2018-11-25T05:08:01.352Z,19.93
2018-11-25T05:10:31.283Z,20.80
2018-11-25T05:13:01.072Z,20.07
2018-11-25T05:15:30.850Z,20.40
2018-11-25T05:18:00.588Z,19.80
2018-11-25T05:20:30.263Z,19.23
2018-11-25T05:23:00.000Z,18.10
2018-11-25T05:25:29.859Z,19.10
2018-11-25T05:27:59.658Z,19.43
2018-11-25T05:30:29.377Z,18.47
2018-11-25T05:32:59.175Z,19.17
2018-11-25T05:35:28.992Z,19.07
2018-11-25T05:37:58.763Z,20.43
2018-11-25T05:40:28.508Z,18.40
2018-11-25T05:42:58.249Z,18.13
2018-11-25T05:45:28.023Z,18.53
2018-11-25T05:47:57.903Z,19.13
2018-11-25T05:50:27.600Z,17.50
2018-11-25T05:52:57.283Z,18.03
2018-11-25T05:55:27.016Z,17.40
2018-11-25T05:57:56.807Z,17.40
2018-11-25T06:00:28.256Z,17.33
2018-11-25T06:02:58.211Z,18.10
2018-11-25T06:05:28.020Z,17.67
2018-11-25T06:07:57.911Z,17.23
2018-11-25T06:10:27.599Z,17.83
2018-11-25T06:12:57.633Z,17.50
2018-11-25T06:15:27.319Z,16.70
2018-11-25T06:17:57.263Z,17.07
2018-11-25T06:20:27.121Z,16.40
2018-11-25T06:22:56.915Z,15.10
2018-11-25T06:25:26.601Z,17.57
2018-11-25T06:27:56.915Z,17.67
2018-11-25T06:30:26.592Z,14.90
2018-11-25T06:32:56.325Z,16.53
2018-11-25T06:35:26.164Z,16.70
2018-11-25T06:37:55.895Z,15.67
2018-11-25T06:40:25.653Z,16.03
2018-11-25T06:42:55.263Z,14.03
2018-11-25T06:45:26.583Z,15.63
2018-11-25T06:47:57.080Z,14.27
2018-11-25T06:50:26.743Z,14.90
2018-11-25T06:52:56.597Z,15.57
2018-11-25T06:55:26.404Z,14.27
2018-11-25T06:57:56.321Z,15.80
2018-11-25T07:00:26.610Z,14.30
2018-11-25T07:02:56.339Z,16.83
2018-11-25T07:05:26.428Z,16.47
2018-11-25T07:07:56.235Z,17.93
2018-11-25T07:10:26.019Z,39.07
2018-11-25T07:12:56.420Z,76.83
2018-11-25T07:15:26.223Z,79.77
2018-11-25T07:17:56.120Z,64.97
2018-11-25T07:20:25.898Z,36.60
2018-11-25T07:22:55.544Z,33.13
2018-11-25T07:25:25.491Z,31.17
2018-11-25T07:27:55.159Z,34.60
2018-11-25T07:30:25.835Z,32.70
2018-11-25T07:32:55.708Z,35.87
2018-11-25T07:35:27.327Z,37.73
2018-11-25T07:37:57.627Z,41.03
2018-11-25T07:40:27.668Z,37.60
2018-11-25T07:42:57.682Z,33.63
2018-11-25T07:45:30.630Z,31.70
2018-11-25T07:47:57.400Z,31.70
2018-11-25T07:50:27.204Z,30.87
2018-11-25T07:52:57.064Z,32.33
2018-11-25T07:55:26.978Z,30.17
2018-11-25T07:57:58.309Z,32.33
2018-11-25T08:00:28.218Z,33.70
2018-11-25T08:02:58.005Z,30.00
2018-11-25T08:05:28.283Z,30.87
2018-11-25T08:07:58.037Z,29.07
2018-11-25T08:10:28.832Z,28.77
2018-11-25T08:12:58.582Z,29.07
2018-11-25T08:15:28.427Z,30.17
2018-11-25T08:17:58.227Z,28.37
2018-11-25T08:20:28.004Z,32.70
2018-11-25T08:22:57.861Z,34.03
2018-11-25T08:25:27.632Z,45.00
2018-11-25T08:27:57.471Z,39.13
2018-11-25T08:30:27.222Z,37.37
2018-11-25T08:32:56.961Z,32.53
2018-11-25T08:35:26.684Z,35.00
2018-11-25T08:37:56.412Z,44.73
2018-11-25T08:40:26.352Z,51.93
2018-11-25T08:42:56.132Z,62.50
2018-11-25T08:45:25.848Z,54.43
2018-11-25T08:47:55.554Z,60.53
2018-11-25T08:50:25.271Z,35.57
2018-11-25T08:52:54.968Z,43.63
2018-11-25T08:55:25.547Z,49.13
2018-11-25T08:57:55.563Z,55.13
2018-11-25T09:00:27.205Z,50.77
2018-11-25T09:02:57.469Z,51.73
2018-11-25T09:05:27.200Z,56.87
2018-11-25T09:07:57.544Z,46.20
2018-11-25T09:10:27.383Z,31.70
2018-11-25T09:12:58.144Z,28.93
2018-11-25T09:15:31.659Z,21.67
2018-11-25T09:18:01.467Z,26.80
2018-11-25T09:20:31.279Z,21.90
2018-11-25T09:23:01.072Z,19.13
2018-11-25T09:25:31.827Z,17.97
2018-11-25T09:28:02.611Z,16.03
2018-11-25T09:30:33.016Z,16.70
2018-11-25T09:33:02.813Z,16.67
2018-11-25T09:35:32.527Z,16.43
2018-11-25T09:38:02.699Z,16.43
2018-11-25T09:40:32.444Z,18.70
2018-11-25T09:43:02.300Z,23.90
2018-11-25T09:45:32.096Z,35.57
2018-11-25T09:48:02.011Z,28.57
2018-11-25T09:50:31.821Z,35.70
2018-11-25T09:53:01.604Z,32.13
2018-11-25T09:55:31.362Z,30.43
2018-11-25T09:58:01.785Z,38.73
2018-11-25T10:00:33.628Z,34.20
2018-11-25T10:03:04.093Z,32.70
2018-11-25T10:05:33.776Z,34.57
2018-11-25T10:08:03.715Z,36.50
2018-11-25T10:10:33.313Z,34.70
2018-11-25T10:13:06.299Z,43.53
2018-11-25T10:15:35.980Z,44.67
2018-11-25T10:18:05.849Z,51.97
2018-11-25T10:20:35.487Z,54.17
2018-11-25T10:23:08.310Z,62.20
2018-11-25T10:25:38.133Z,64.77
2018-11-25T10:28:08.243Z,68.30
2018-11-25T10:30:38.120Z,57.93
2018-11-25T10:33:09.720Z,56.57
2018-11-25T10:35:39.524Z,56.40
2018-11-25T10:38:09.416Z,52.37
2018-11-25T10:40:39.904Z,55.50
2018-11-25T10:43:09.668Z,56.50
2018-11-25T10:45:39.420Z,37.17
2018-11-25T10:48:09.492Z,45.93
2018-11-25T10:50:39.280Z,58.47
2018-11-25T10:53:09.110Z,58.13
2018-11-25T10:55:38.901Z,48.07
2018-11-25T10:58:09.408Z,49.33
2018-11-25T11:00:45.893Z,50.03
2018-11-25T11:03:20.831Z,46.00
2018-11-25T11:05:55.464Z,44.00
2018-11-25T11:08:25.309Z,43.20
2018-11-25T11:10:55.295Z,40.93
2018-11-25T11:13:25.212Z,42.00
2018-11-25T11:15:55.012Z,38.70
2018-11-25T11:18:25.012Z,39.77
2018-11-25T11:20:54.671Z,35.30
2018-11-25T11:23:24.448Z,33.63
2018-11-25T11:25:54.424Z,35.13
2018-11-25T11:28:24.227Z,34.23
2018-11-25T11:30:54.137Z,36.13
2018-11-25T11:33:23.875Z,38.37
2018-11-25T11:35:53.674Z,36.67
2018-11-25T11:38:23.501Z,37.20
2018-11-25T11:40:53.836Z,36.20
2018-11-25T11:43:23.539Z,38.77
2018-11-25T11:45:53.460Z,36.63
2018-11-25T11:48:23.245Z,33.00
2018-11-25T11:50:53.057Z,30.93
2018-11-25T11:53:22.851Z,31.67
2018-11-25T11:55:52.689Z,31.50
2018-11-25T11:58:22.533Z,32.53
2018-11-25T12:00:52.263Z,29.80
2018-11-25T12:03:26.489Z,29.83
2018-11-25T12:05:51.939Z,32.03
2018-11-25T12:08:21.684Z,35.63
2018-11-25T12:10:51.504Z,36.43
2018-11-25T12:13:21.295Z,34.73
2018-11-25T12:15:51.160Z,34.53
2018-11-25T12:18:20.956Z,38.27
2018-11-25T12:20:50.783Z,34.73
2018-11-25T12:23:20.576Z,34.97
2018-11-25T12:25:50.653Z,35.87
2018-11-25T12:28:20.452Z,33.73
2018-11-25T12:30:50.331Z,34.07
2018-11-25T12:33:20.110Z,34.70
2018-11-25T12:35:50.015Z,34.93
2018-11-25T12:38:19.708Z,34.63
2018-11-25T12:40:49.468Z,34.23
2018-11-25T12:43:19.276Z,35.03
2018-11-25T12:45:49.056Z,33.33
2018-11-25T12:48:18.751Z,33.33
2018-11-25T12:50:48.540Z,33.40
2018-11-25T12:53:18.286Z,34.33
2018-11-25T12:55:48.192Z,34.90
2018-11-25T12:58:17.897Z,34.77
2018-11-25T13:00:49.031Z,34.83
2018-11-25T13:03:18.864Z,33.57
2018-11-25T13:05:49.227Z,33.73
2018-11-25T13:08:19.058Z,32.13
2018-11-25T13:10:48.804Z,33.17
2018-11-25T13:13:18.727Z,45.47
2018-11-25T13:15:48.393Z,53.67
2018-11-25T13:18:18.227Z,43.73
2018-11-25T13:20:47.929Z,42.00
2018-11-25T13:23:17.792Z,43.83
2018-11-25T13:25:48.603Z,43.97
2018-11-25T13:28:18.440Z,44.77
2018-11-25T13:30:48.231Z,48.30
2018-11-25T13:33:17.883Z,49.20
2018-11-25T13:35:47.853Z,54.23
2018-11-25T13:38:17.576Z,59.63
2018-11-25T13:40:47.442Z,80.17
2018-11-25T13:43:17.117Z,74.90
2018-11-25T13:45:46.842Z,77.23
2018-11-25T13:48:16.463Z,86.87
2018-11-25T13:50:46.312Z,84.13
2018-11-25T13:53:16.195Z,70.43
2018-11-25T13:55:45.958Z,94.47
2018-11-25T13:58:16.344Z,112.60
2018-11-25T14:00:47.691Z,99.30
2018-11-25T14:03:24.173Z,90.77
2018-11-25T14:05:55.240Z,98.73
2018-11-25T14:08:24.943Z,92.87
2018-11-25T14:11:04.776Z,90.97
2018-11-25T14:13:34.636Z,95.73
2018-11-25T14:16:04.804Z,92.83
2018-11-25T14:18:34.596Z,91.80
2018-11-25T14:21:04.380Z,89.07
2018-11-25T14:23:34.257Z,93.70
2018-11-25T14:26:09.216Z,97.87
2018-11-25T14:28:39.064Z,90.33
2018-11-25T14:31:08.871Z,90.97
2018-11-25T14:33:38.910Z,91.00
2018-11-25T14:36:08.713Z,89.17
2018-11-25T14:38:38.584Z,93.00
2018-11-25T14:41:08.661Z,88.10
2018-11-25T14:43:38.467Z,88.23
2018-11-25T14:46:08.364Z,86.90
2018-11-25T14:48:37.996Z,95.57
2018-11-25T14:51:07.825Z,99.80
2018-11-25T14:53:37.545Z,102.47
2018-11-25T14:56:07.343Z,102.43
2018-11-25T14:58:37.143Z,94.90
2018-11-25T15:01:07.033Z,100.53
2018-11-25T15:03:36.604Z,98.73
2018-11-25T15:06:06.349Z,97.53
2018-11-25T15:08:36.552Z,96.90
2018-11-25T15:11:06.238Z,94.03
2018-11-25T15:13:35.887Z,96.87
2018-11-25T15:16:07.897Z,95.57
2018-11-25T15:18:37.660Z,94.20
2018-11-25T15:21:08.544Z,96.57
2018-11-25T15:23:38.483Z,93.33
2018-11-25T15:26:09.636Z,96.60
2018-11-25T15:28:39.508Z,91.90
2018-11-25T15:31:09.199Z,100.57
2018-11-25T15:33:38.937Z,93.77
2018-11-25T15:36:08.744Z,89.70
2018-11-25T15:38:38.486Z,98.33
2018-11-25T15:41:08.438Z,96.80
2018-11-25T15:43:38.179Z,103.07
2018-11-25T15:46:07.972Z,100.47
2018-11-25T15:48:37.784Z,105.93
2018-11-25T15:51:07.609Z,100.90
2018-11-25T15:53:37.233Z,102.67
2018-11-25T15:56:09.686Z,98.30
2018-11-25T15:58:39.484Z,100.13
2018-11-25T16:01:09.318Z,98.67
2018-11-25T16:03:39.087Z,99.37
2018-11-25T16:06:12.166Z,98.13
2018-11-25T16:08:41.958Z,96.00
2018-11-25T16:11:11.577Z,98.40
2018-11-25T16:13:41.366Z,98.63
2018-11-25T16:16:11.447Z,100.97
2018-11-25T16:18:41.531Z,95.83
2018-11-25T16:21:11.258Z,95.20
2018-11-25T16:23:41.112Z,91.33
2018-11-25T16:26:17.135Z,91.27
2018-11-25T16:28:48.397Z,92.17
2018-11-25T16:31:18.184Z,93.00
2018-11-25T16:33:47.953Z,88.70
2018-11-25T16:36:17.654Z,91.80
2018-11-25T16:38:47.652Z,88.70
2018-11-25T16:41:17.350Z,87.40
2018-11-25T16:43:47.268Z,91.90
2018-11-25T16:46:16.968Z,91.40
2018-11-25T16:48:46.820Z,90.67
2018-11-25T16:51:16.856Z,90.43
2018-11-25T16:53:46.799Z,88.67
2018-11-25T16:56:16.516Z,87.50
2018-11-25T16:58:46.294Z,91.97
2018-11-25T17:01:16.055Z,105.63
2018-11-25T17:03:45.964Z,98.87
2018-11-25T17:06:16.045Z,90.83
2018-11-25T17:08:46.275Z,85.13
2018-11-25T17:11:16.091Z,91.40
2018-11-25T17:13:45.888Z,89.13
2018-11-25T17:16:15.742Z,84.57
2018-11-25T17:18:45.635Z,87.37
2018-11-25T17:21:15.496Z,92.63
2018-11-25T17:23:45.334Z,95.43
2018-11-25T17:26:15.142Z,121.87
2018-11-25T17:28:44.953Z,107.83
2018-11-25T17:31:14.723Z,111.97
2018-11-25T17:33:44.915Z,105.73
2018-11-25T17:36:14.655Z,113.67
2018-11-25T17:38:44.400Z,114.13
2018-11-25T17:41:14.344Z,125.07
2018-11-25T17:43:45.076Z,113.83
2018-11-25T17:46:14.809Z,115.03
2018-11-25T17:48:44.788Z,118.50
2018-11-25T17:51:14.540Z,120.27
2018-11-25T17:53:44.319Z,122.40
2018-11-25T17:56:14.110Z,120.67
2018-11-25T17:58:43.957Z,120.73
2018-11-25T18:01:13.863Z,123.10
2018-11-25T18:03:43.935Z,124.90
2018-11-25T18:06:13.612Z,123.23
2018-11-25T18:08:43.484Z,128.40
2018-11-25T18:11:13.490Z,127.03
2018-11-25T18:13:43.548Z,123.17
2018-11-25T18:16:14.369Z,126.83
2018-11-25T18:18:51.849Z,124.80
2018-11-25T18:21:25.168Z,125.70
2018-11-25T18:23:54.942Z,132.57
2018-11-25T18:26:24.867Z,134.33
2018-11-25T18:28:54.733Z,131.13
2018-11-25T18:31:24.811Z,140.77
2018-11-25T18:33:54.529Z,136.07
2018-11-25T18:36:24.097Z,133.30
2018-11-25T18:38:53.843Z,137.27
2018-11-25T18:41:23.453Z,132.97
2018-11-25T18:43:53.311Z,136.13
2018-11-25T18:46:23.205Z,139.77
2018-11-25T18:48:53.749Z,138.03
2018-11-25T18:51:23.771Z,144.10
2018-11-25T18:53:53.540Z,151.43
2018-11-25T18:56:23.340Z,153.37
2018-11-25T18:58:53.104Z,157.00
2018-11-25T19:01:30.553Z,150.30
2018-11-25T19:04:02.361Z,165.17
2018-11-25T19:06:32.162Z,162.20
2018-11-25T19:09:02.450Z,158.93
2018-11-25T19:11:33.013Z,158.03
2018-11-25T19:14:02.828Z,178.53
2018-11-25T19:16:32.729Z,161.47
2018-11-25T19:19:03.080Z,175.33
2018-11-25T19:21:32.831Z,175.90
2018-11-25T19:24:02.693Z,177.63
2018-11-25T19:26:32.341Z,185.57
2018-11-25T19:29:02.268Z,156.17
2018-11-25T19:31:32.073Z,165.27
2018-11-25T19:34:02.556Z,151.97
2018-11-25T19:36:32.292Z,155.73
2018-11-25T19:39:02.097Z,156.37
2018-11-25T19:41:32.868Z,161.37
2018-11-25T19:44:06.300Z,156.13
2018-11-25T19:46:36.740Z,153.47
2018-11-25T19:49:10.773Z,149.80
2018-11-25T19:51:40.914Z,151.20
2018-11-25T19:54:10.887Z,145.47
2018-11-25T19:56:40.693Z,143.73
2018-11-25T19:59:10.567Z,145.37
2018-11-25T20:01:40.368Z,143.70
2018-11-25T20:04:10.176Z,141.93
2018-11-25T20:06:40.312Z,136.33
2018-11-25T20:09:10.977Z,137.80
2018-11-25T20:11:40.699Z,136.70
2018-11-25T20:14:10.880Z,132.83
2018-11-25T20:16:45.979Z,133.47
2018-11-25T20:19:15.972Z,130.43
2018-11-25T20:21:50.821Z,130.70
2018-11-25T20:24:20.936Z,129.27
2018-11-25T20:26:56.143Z,128.57
2018-11-25T20:29:25.928Z,121.80
2018-11-25T20:32:59.488Z,125.27
2018-11-25T20:35:29.524Z,122.37
2018-11-25T20:38:04.805Z,109.87
2018-11-25T20:40:34.805Z,100.67
2018-11-25T20:43:04.731Z,98.50
2018-11-25T20:45:39.884Z,98.17
2018-11-25T20:48:09.643Z,94.73
2018-11-25T20:50:39.403Z,133.93
2018-11-25T20:53:14.166Z,104.07
2018-11-25T20:55:44.031Z,108.93
2018-11-25T20:58:13.672Z,113.37
2018-11-25T21:00:43.847Z,109.10
2018-11-25T21:03:13.976Z,108.13
2018-11-25T21:05:43.736Z,106.07
2018-11-25T21:08:13.676Z,105.77
2018-11-25T21:10:43.569Z,102.97
2018-11-25T21:13:13.467Z,97.80
2018-11-25T21:15:43.157Z,97.97
2018-11-25T21:18:12.899Z,99.80
2018-11-25T21:20:50.841Z,100.10
2018-11-25T21:23:12.480Z,96.50
2018-11-25T21:25:42.225Z,96.13
2018-11-25T21:28:12.158Z,92.37
2018-11-25T21:30:41.946Z,93.47
2018-11-25T21:33:11.744Z,91.10
2018-11-25T21:35:41.771Z,94.37
2018-11-25T21:38:11.531Z,93.50
2018-11-25T21:40:41.331Z,89.97
2018-11-25T21:43:11.032Z,92.80
2018-11-25T21:45:41.191Z,86.63
2018-11-25T21:48:10.964Z,91.80
2018-11-25T21:50:40.874Z,94.53
2018-11-25T21:53:10.688Z,96.03
2018-11-25T21:55:40.479Z,99.73
2018-11-25T21:58:10.170Z,99.57
2018-11-25T22:00:40.000Z,105.73
2018-11-25T22:03:09.691Z,93.00
2018-11-25T22:05:39.416Z,109.03
2018-11-25T22:08:09.175Z,103.10
2018-11-25T22:10:39.059Z,105.73
2018-11-25T22:13:09.365Z,115.50
2018-11-25T22:15:39.046Z,110.90
2018-11-25T22:18:08.840Z,102.40
2018-11-25T22:20:38.532Z,106.63
2018-11-25T22:23:08.328Z,108.00
2018-11-25T22:25:38.026Z,104.23
2018-11-25T22:28:07.819Z,105.67
2018-11-25T22:30:37.908Z,106.50
2018-11-25T22:33:07.880Z,103.10
2018-11-25T22:35:38.044Z,102.13
2018-11-25T22:38:08.940Z,102.50
2018-11-25T22:40:38.584Z,98.87
2018-11-25T22:43:08.488Z,99.63
2018-11-25T22:45:38.097Z,100.67
2018-11-25T22:48:07.980Z,105.27
2018-11-25T22:50:38.066Z,95.80
2018-11-25T22:53:08.351Z,93.73
2018-11-25T22:55:37.976Z,95.33
2018-11-25T22:58:07.763Z,94.43
2018-11-25T23:00:38.350Z,96.13
2018-11-25T23:03:08.477Z,91.03
2018-11-25T23:05:49.112Z,91.50
2018-11-25T23:08:18.933Z,91.23
2018-11-25T23:10:48.675Z,90.53
2018-11-25T23:13:18.281Z,87.57
2018-11-25T23:15:48.050Z,90.37
2018-11-25T23:18:17.712Z,88.70
2018-11-25T23:20:47.548Z,86.97
2018-11-25T23:23:17.268Z,84.47
2018-11-25T23:25:47.068Z,84.40
2018-11-25T23:28:16.833Z,82.63
2018-11-25T23:30:46.529Z,86.40
2018-11-25T23:33:16.363Z,82.13
2018-11-25T23:35:46.057Z,83.20
2018-11-25T23:38:15.782Z,81.07
2018-11-25T23:40:45.580Z,81.97
2018-11-25T23:43:15.335Z,80.33
2018-11-25T23:45:45.019Z,80.57
2018-11-25T23:48:14.818Z,77.50
2018-11-25T23:50:44.574Z,78.87
2018-11-25T23:53:14.335Z,80.60
2018-11-25T23:55:44.131Z,77.67
2018-11-25T23:58:13.732Z,74.87
